Time;durP1;ratioP1;P1;durP2;ratioP2;P2;SDS_P1;SDS_P2;PMS_P1;PMS_P2;Temp;Humidity;BMP_temperature;BMP_pressure;BME280_temperature;BME280_humidity;BME280_pressure;Samples;Min_cycle;Max_cycle;Signal;HPM_P1;HPM_P2
2023/03/09 00:00:52;;;;;;;;;0.00;0.00;;;;;22.47;36.86;98844.53;5072501;27;64846;-77
2023/03/09 00:03:17;;;;;;;;;3.00;0.00;;;;;22.48;37.13;98852.38;5073086;28;73505;-77
2023/03/09 00:05:43;;;;;;;;;1.00;1.00;;;;;22.49;36.85;98854.03;5051918;28;47127;-78
2023/03/09 00:08:09;;;;;;;;;0.00;0.00;;;;;22.48;37.14;98862.19;5078125;27;45468;-78
2023/03/09 00:10:39;;;;;;;;;2.00;0.00;;;;;22.49;37.27;98869.22;5068586;27;45382;-77
2023/03/09 00:13:04;;;;;;;;;0.00;0.00;;;;;22.48;37.10;98871.03;5065028;28;45311;-77
2023/03/09 00:15:30;;;;;;;;;2.00;0.00;;;;;22.44;37.00;98861.69;5068763;27;66693;-77
2023/03/09 00:17:56;;;;;;;;;2.00;0.00;;;;;22.46;37.05;98872.19;5066622;28;45652;-77
2023/03/09 00:20:22;;;;;;;;;1.25;0.25;;;;;22.47;36.63;98881.84;5078168;27;61212;-77
2023/03/09 00:22:49;;;;;;;;;0.00;0.00;;;;;22.46;37.06;98883.69;5075854;27;45396;-77
2023/03/09 00:25:15;;;;;;;;;0.25;0.00;;;;;22.45;37.20;98889.19;5063471;28;45292;-77
2023/03/09 00:27:41;;;;;;;;;0.75;0.75;;;;;22.45;36.67;98879.38;5059435;28;45499;-77
2023/03/09 00:30:08;;;;;;;;;0.00;0.00;;;;;22.45;37.12;98890.03;5060136;28;45395;-77
2023/03/09 00:32:33;;;;;;;;;0.00;0.00;;;;;22.43;37.03;98881.34;5068757;28;45315;-77
2023/03/09 00:34:59;;;;;;;;;2.00;0.00;;;;;22.44;36.83;98890.19;5072954;27;48431;-77
2023/03/09 00:37:24;;;;;;;;;1.25;0.00;;;;;22.44;36.95;98896.34;5066819;28;68937;-77
2023/03/09 00:39:49;;;;;;;;;0.00;0.00;;;;;22.42;36.65;98901.00;5073255;27;45989;-77
2023/03/09 00:42:15;;;;;;;;;0.75;0.75;;;;;22.41;37.09;98894.00;5065176;27;45404;-77
2023/03/09 00:44:40;;;;;;;;;0.75;0.25;;;;;22.41;36.47;98898.50;5073773;28;45535;-76
2023/03/09 00:47:05;;;;;;;;;0.00;0.00;;;;;22.40;37.07;98895.00;5070582;28;46760;-77
2023/03/09 00:49:31;;;;;;;;;1.00;0.00;;;;;22.37;36.71;98900.66;5069153;27;45419;-76
2023/03/09 00:51:56;;;;;;;;;0.50;0.00;;;;;22.40;36.66;98905.69;5069486;27;65676;-77
2023/03/09 00:54:21;;;;;;;;;0.00;0.00;;;;;22.36;36.88;98912.31;5070337;27;47813;-76
2023/03/09 00:56:47;;;;;;;;;0.00;0.00;;;;;22.34;36.90;98925.78;5069946;28;45617;-77
2023/03/09 00:59:12;;;;;;;;;0.25;0.25;;;;;22.39;37.09;98933.31;5056473;28;67401;-77
2023/03/09 01:01:37;;;;;;;;;2.00;1.00;;;;;22.37;36.44;98916.66;5068565;27;46265;-77
2023/03/09 01:04:03;;;;;;;;;0.75;0.00;;;;;22.36;37.06;98921.16;5069755;27;45882;-77
2023/03/09 01:06:28;;;;;;;;;0.00;0.00;;;;;22.37;36.73;98935.31;5070586;28;45538;-77
2023/03/09 01:08:54;;;;;;;;;1.00;0.00;;;;;22.36;36.74;98945.16;5065849;27;49868;-77
2023/03/09 01:11:20;;;;;;;;;0.25;0.25;;;;;22.33;36.54;98941.97;5070677;28;45325;-77
2023/03/09 01:13:45;;;;;;;;;0.00;0.00;;;;;22.34;36.92;98943.63;5056617;28;48321;-77
2023/03/09 01:16:11;;;;;;;;;2.50;0.00;;;;;22.35;36.92;98953.31;5075735;28;45375;-77
2023/03/09 01:18:37;;;;;;;;;0.00;0.00;;;;;22.34;36.48;98951.63;5057104;28;45227;-77
2023/03/09 01:21:02;;;;;;;;;1.25;0.00;;;;;22.35;36.62;98954.13;5066512;27;45393;-77
2023/03/09 01:23:28;;;;;;;;;1.00;0.00;;;;;22.34;36.48;98954.28;5073439;27;46249;-78
2023/03/09 01:25:54;;;;;;;;;2.50;0.00;;;;;22.35;36.74;98966.63;5076378;27;45400;-78
2023/03/09 01:28:19;;;;;;;;;0.00;0.00;;;;;22.34;36.53;98967.59;5074213;27;45429;-77
2023/03/09 01:30:45;;;;;;;;;0.00;0.00;;;;;22.30;36.57;98967.09;5074557;27;72148;-77
2023/03/09 01:33:12;;;;;;;;;0.50;0.00;;;;;22.30;36.61;98969.75;5069329;28;69481;-77
2023/03/09 01:35:39;;;;;;;;;0.75;0.00;;;;;22.28;36.46;98974.41;5067548;27;45343;-77
2023/03/09 01:38:04;;;;;;;;;0.00;0.00;;;;;22.30;36.37;98987.59;5076665;28;45445;-77
2023/03/09 01:40:30;;;;;;;;;1.00;0.00;;;;;22.27;36.55;98994.06;5068051;28;61258;-77
2023/03/09 01:43:24;;;;;;;;;0.00;0.00;;;;;22.30;36.45;99000.91;5069651;28;45401;-77
2023/03/09 01:45:49;;;;;;;;;0.75;0.00;;;;;22.29;36.29;99007.22;5069827;27;46246;-77
2023/03/09 01:48:15;;;;;;;;;1.00;0.00;;;;;22.27;36.73;99003.88;5074355;27;45256;-77
2023/03/09 01:50:40;;;;;;;;;2.25;0.75;;;;;22.29;36.30;99008.09;5071922;28;55802;-77
2023/03/09 01:53:11;;;;;;;;;0.00;0.00;;;;;22.28;36.77;99011.72;5072642;28;45518;-77
2023/03/09 01:55:40;;;;;;;;;1.00;0.00;;;;;22.28;36.63;99008.22;5083597;27;45552;-76
2023/03/09 01:58:09;;;;;;;;;0.00;0.00;;;;;22.27;37.04;99003.88;5074285;27;45525;-76
2023/03/09 02:00:35;;;;;;;;;0.00;0.00;;;;;22.25;36.42;99005.84;5072769;27;45287;-76
2023/03/09 02:03:05;;;;;;;;;0.00;0.00;;;;;22.24;36.40;99005.03;5053617;28;46807;-76
2023/03/09 02:05:42;;;;;;;;;0.00;0.00;;;;;22.24;36.60;99009.50;5069980;28;45835;-77
2023/03/09 02:08:08;;;;;;;;;0.75;0.00;;;;;22.26;36.13;99007.53;5067292;28;45213;-77
2023/03/09 02:10:37;;;;;;;;;0.00;0.00;;;;;22.24;36.29;99007.69;5050873;28;45449;-77
2023/03/09 02:13:07;;;;;;;;;3.75;0.00;;;;;22.19;36.42;99005.50;5069173;28;45358;-77
2023/03/09 02:15:32;;;;;;;;;0.00;0.00;;;;;22.23;36.52;99011.34;5075670;27;45675;-77
2023/03/09 02:17:58;;;;;;;;;1.00;0.00;;;;;22.23;36.51;99016.66;5067893;27;67792;-77
2023/03/09 02:21:05;;;;;;;;;0.50;0.00;;;;;22.22;36.37;99016.81;5071924;28;66310;-76
2023/03/09 02:23:55;;;;;;;;;1.75;0.00;;;;;22.21;36.57;99013.31;5060613;28;46793;-77
2023/03/09 02:26:34;;;;;;;;;0.50;0.00;;;;;22.19;36.29;99025.97;5067607;28;45738;-76
2023/03/09 02:28:59;;;;;;;;;0.00;0.00;;;;;22.17;36.41;99027.97;5071857;28;45571;-76
2023/03/09 02:31:25;;;;;;;;;0.00;0.00;;;;;22.19;36.42;99031.31;5064813;28;72226;-77
2023/03/09 02:33:50;;;;;;;;;1.00;0.00;;;;;22.18;36.08;99042.94;5070820;27;47603;-76
2023/03/09 02:36:15;;;;;;;;;0.50;0.50;;;;;22.15;36.27;99035.25;5065300;28;65644;-77
2023/03/09 02:38:41;;;;;;;;;1.00;0.25;;;;;22.18;36.70;99041.09;5072398;28;46299;-76
2023/03/09 02:41:09;;;;;;;;;0.00;0.00;;;;;22.16;36.46;99036.94;5069309;28;45300;-77
2023/03/09 02:43:49;;;;;;;;;2.00;0.00;;;;;22.16;36.01;99051.09;5070668;28;46425;-76
2023/03/09 02:46:15;;;;;;;;;0.00;0.00;;;;;22.17;36.49;99046.63;5068140;28;45295;-77
2023/03/09 02:48:40;;;;;;;;;0.00;0.00;;;;;22.17;36.17;99052.78;5069581;27;65044;-77
2023/03/09 02:51:06;;;;;;;;;0.00;0.00;;;;;22.18;36.56;99058.94;5069556;28;51640;-76
2023/03/09 02:53:31;;;;;;;;;0.25;0.00;;;;;22.18;36.49;99069.59;5064411;28;46998;-76
2023/03/09 02:55:57;;;;;;;;;0.00;0.00;;;;;22.17;36.61;99065.28;5070631;27;45490;-76
2023/03/09 02:58:22;;;;;;;;;0.00;0.00;;;;;22.13;36.25;99069.22;5067877;27;67296;-76
2023/03/09 03:00:47;;;;;;;;;2.25;0.00;;;;;22.15;36.08;99067.22;5067211;28;72831;-76
2023/03/09 03:03:13;;;;;;;;;1.00;0.00;;;;;22.14;36.31;99070.91;5074409;27;45509;-76
2023/03/09 03:05:38;;;;;;;;;1.50;0.00;;;;;22.14;36.40;99065.56;5080425;27;45552;-76
2023/03/09 03:08:04;;;;;;;;;0.00;0.00;;;;;22.15;36.47;99072.56;5061739;28;45373;-76
2023/03/09 03:10:29;;;;;;;;;0.00;0.00;;;;;22.12;36.08;99081.72;5075476;28;69402;-76
2023/03/09 03:12:54;;;;;;;;;0.00;0.00;;;;;22.12;36.13;99087.03;5086950;27;55233;-75
2023/03/09 03:15:20;;;;;;;;;0.00;0.00;;;;;22.11;36.02;99081.88;5061262;28;72809;-75
2023/03/09 03:17:45;;;;;;;;;0.00;0.00;;;;;22.11;36.01;99068.53;5067008;28;60791;-75
2023/03/09 03:20:14;;;;;;;;;1.00;0.00;;;;;22.11;36.32;99093.34;5063135;27;73097;-75
2023/03/09 03:22:40;;;;;;;;;0.00;0.00;;;;;22.13;36.23;99093.19;5075171;27;45366;-75
2023/03/09 03:25:06;;;;;;;;;0.00;0.00;;;;;22.13;36.06;99090.53;5071335;28;45257;-76
2023/03/09 03:27:32;;;;;;;;;1.00;0.00;;;;;22.13;35.94;99096.72;5072650;28;45390;-75
2023/03/09 03:29:58;;;;;;;;;1.00;0.00;;;;;22.11;36.28;99092.53;5057706;28;46004;-75
2023/03/09 03:32:23;;;;;;;;;1.75;0.00;;;;;22.12;36.39;99100.38;5080396;27;47110;-75
2023/03/09 03:34:49;;;;;;;;;0.00;0.00;;;;;22.11;36.50;99093.34;5073042;28;45559;-75
2023/03/09 03:37:14;;;;;;;;;0.00;0.00;;;;;22.11;36.33;99092.53;5081908;27;64802;-75
2023/03/09 03:39:39;;;;;;;;;0.75;0.00;;;;;22.10;36.55;99102.34;5068156;28;72901;-75
2023/03/09 03:42:05;;;;;;;;;0.75;0.00;;;;;22.08;36.27;99104.34;5074717;27;60662;-75
2023/03/09 03:44:30;;;;;;;;;0.00;0.00;;;;;22.11;36.01;99116.50;5070317;28;45487;-78
2023/03/09 03:46:56;;;;;;;;;0.00;0.00;;;;;22.09;36.15;99107.84;5051398;28;45632;-76
2023/03/09 03:49:21;;;;;;;;;2.25;0.00;;;;;22.09;35.95;99113.16;5070899;27;45306;-76
2023/03/09 03:51:47;;;;;;;;;0.00;0.00;;;;;22.09;36.06;99106.00;5074178;28;45368;-75
2023/03/09 03:54:12;;;;;;;;;1.00;0.00;;;;;22.08;36.09;99119.47;5075850;28;45547;-78
2023/03/09 03:56:39;;;;;;;;;0.00;0.00;;;;;22.10;36.22;99121.00;5067118;27;60464;-76
2023/03/09 03:59:05;;;;;;;;;0.00;0.00;;;;;22.06;36.28;99121.47;5073748;28;45457;-76
2023/03/09 04:01:30;;;;;;;;;0.25;0.00;;;;;22.09;35.96;99129.97;5059440;28;47626;-75
2023/03/09 04:03:56;;;;;;;;;0.00;0.00;;;;;22.08;36.34;99124.78;5075505;28;45454;-76
2023/03/09 04:06:21;;;;;;;;;0.00;0.00;;;;;22.08;36.13;99135.44;5080125;27;45533;-75
2023/03/09 04:08:46;;;;;;;;;0.00;0.00;;;;;22.07;36.01;99136.47;5067464;27;66428;-75
2023/03/09 04:11:12;;;;;;;;;2.00;0.00;;;;;22.07;36.08;99139.94;5065756;27;45206;-76
2023/03/09 04:13:37;;;;;;;;;1.75;0.00;;;;;22.07;36.04;99139.94;5067883;28;45394;-76
2023/03/09 04:16:03;;;;;;;;;2.00;0.50;;;;;22.07;36.16;99141.78;5074686;28;69295;-75
2023/03/09 04:18:28;;;;;;;;;0.00;0.00;;;;;22.04;36.07;99147.41;5068762;27;45419;-77
2023/03/09 04:20:54;;;;;;;;;1.00;0.00;;;;;22.05;35.93;99151.78;5060338;28;47019;-75
2023/03/09 04:23:19;;;;;;;;;0.75;0.75;;;;;22.03;36.61;99137.75;5072403;27;70026;-75
2023/03/09 04:25:55;;;;;;;;;1.25;0.00;;;;;22.04;36.36;99158.06;5074811;27;45714;-75
2023/03/09 04:28:21;;;;;;;;;1.50;0.00;;;;;22.03;36.18;99156.38;5059180;27;45485;-75
2023/03/09 04:30:46;;;;;;;;;0.00;0.00;;;;;22.02;35.96;99152.91;5064784;27;77310;-76
2023/03/09 04:33:11;;;;;;;;;2.00;0.00;;;;;22.06;36.42;99164.94;5069786;27;67659;-75
2023/03/09 04:35:37;;;;;;;;;1.00;0.00;;;;;22.02;36.42;99147.56;5073118;28;56943;-75
2023/03/09 04:38:02;;;;;;;;;1.00;0.00;;;;;21.99;36.25;99153.19;5062368;28;45295;-76
2023/03/09 04:40:28;;;;;;;;;2.00;0.00;;;;;22.01;35.89;99167.22;5069766;27;71859;-75
2023/03/09 04:42:54;;;;;;;;;1.00;0.00;;;;;22.03;35.96;99167.91;5071017;27;51539;-76
2023/03/09 04:45:19;;;;;;;;;0.50;0.50;;;;;22.00;36.56;99166.38;5074253;28;45462;-75
2023/03/09 04:47:44;;;;;;;;;0.00;0.00;;;;;22.02;35.80;99176.88;5070007;28;57627;-76
2023/03/09 04:50:10;;;;;;;;;1.00;0.00;;;;;22.01;36.27;99177.88;5072852;27;76123;-78
2023/03/09 04:52:36;;;;;;;;;0.75;0.00;;;;;22.03;36.48;99194.53;5065277;27;45258;-76
2023/03/09 04:55:01;;;;;;;;;0.50;0.50;;;;;22.02;36.31;99181.38;5065002;27;62652;-77
2023/03/09 04:57:27;;;;;;;;;0.50;0.00;;;;;21.97;35.89;99174.69;5067182;27;45415;-77
2023/03/09 04:59:53;;;;;;;;;1.00;0.00;;;;;21.98;36.28;99183.50;5074660;27;45486;-77
2023/03/09 05:02:18;;;;;;;;;0.00;0.00;;;;;22.01;35.76;99196.53;5051549;27;45344;-76
2023/03/09 05:04:43;;;;;;;;;1.50;0.50;;;;;22.00;36.24;99198.34;5075883;27;45424;-77
2023/03/09 05:07:09;;;;;;;;;3.00;0.00;;;;;22.00;36.53;99189.50;5070893;28;58347;-77
2023/03/09 05:09:34;;;;;;;;;1.00;0.00;;;;;22.00;35.78;99193.00;5074568;27;46547;-77
2023/03/09 05:12:00;;;;;;;;;0.00;0.00;;;;;21.98;35.74;99191.50;5076043;27;45441;-76
2023/03/09 05:14:25;;;;;;;;;2.00;0.00;;;;;21.98;36.08;99191.50;5078110;27;45546;-77
2023/03/09 05:16:51;;;;;;;;;1.00;0.00;;;;;21.97;36.25;99188.00;5072707;27;67379;-77
2023/03/09 05:19:18;;;;;;;;;0.00;0.00;;;;;21.97;35.98;99201.31;5070177;27;45315;-76
2023/03/09 05:21:43;;;;;;;;;1.00;0.75;;;;;21.96;36.42;99191.66;5073154;27;45751;-77
2023/03/09 05:24:08;;;;;;;;;0.00;0.00;;;;;21.96;35.81;99196.16;5072433;27;59531;-77
2023/03/09 05:26:34;;;;;;;;;1.00;0.00;;;;;21.97;35.94;99196.00;5071533;27;67273;-76
2023/03/09 05:28:59;;;;;;;;;0.00;0.00;;;;;21.99;36.13;99206.47;5060458;27;59432;-76
2023/03/09 05:31:24;;;;;;;;;1.00;0.00;;;;;21.98;36.03;99202.16;5062370;28;59923;-76
2023/03/09 05:33:52;;;;;;;;;2.00;0.00;;;;;21.98;36.33;99194.16;5066029;27;62714;-76
2023/03/09 05:36:23;;;;;;;;;0.00;0.00;;;;;21.95;36.11;99197.94;5064547;28;45693;-76
2023/03/09 05:38:50;;;;;;;;;3.00;0.00;;;;;21.95;35.91;99197.13;5072005;28;45467;-76
2023/03/09 05:41:15;;;;;;;;;0.25;0.00;;;;;21.95;35.94;99203.28;5067933;27;45585;-76
2023/03/09 05:43:44;;;;;;;;;0.75;0.00;;;;;21.94;36.37;99198.97;5053410;28;45417;-76
2023/03/09 05:46:14;;;;;;;;;1.00;0.00;;;;;21.94;36.21;99196.28;5062145;28;45507;-75
2023/03/09 05:48:40;;;;;;;;;3.50;1.00;;;;;21.96;35.95;99204.13;5066873;28;45343;-76
2023/03/09 05:51:07;;;;;;;;;0.00;0.00;;;;;21.93;36.04;99207.09;5070646;28;45310;-76
2023/03/09 05:53:34;;;;;;;;;0.50;0.00;;;;;21.92;36.13;99208.94;5070377;27;45528;-76
2023/03/09 05:55:59;;;;;;;;;0.00;0.00;;;;;21.92;36.20;99208.06;5068638;28;45446;-76
2023/03/09 05:58:25;;;;;;;;;0.00;0.00;;;;;21.94;35.78;99225.59;5073170;28;52211;-76
2023/03/09 06:00:52;;;;;;;;;0.75;0.00;;;;;21.93;36.05;99226.56;5045409;28;72096;-76
2023/03/09 06:03:18;;;;;;;;;0.00;0.00;;;;;21.92;36.16;99226.72;5070260;28;45389;-76
2023/03/09 06:05:43;;;;;;;;;1.00;0.00;;;;;21.94;36.13;99228.25;5075376;27;45395;-75
2023/03/09 06:08:09;;;;;;;;;0.50;0.00;;;;;21.93;36.53;99236.41;5064066;28;45546;-76
2023/03/09 06:10:36;;;;;;;;;0.00;0.00;;;;;21.91;36.32;99233.88;5068421;27;60527;-76
2023/03/09 06:13:01;;;;;;;;;0.00;0.00;;;;;21.96;36.09;99244.91;5069893;27;45299;-76
2023/03/09 06:15:27;;;;;;;;;2.50;0.00;;;;;21.90;35.94;99232.22;5062292;28;45331;-83
2023/03/09 06:17:52;;;;;;;;;0.25;0.25;;;;;21.97;36.67;99248.41;5075923;28;65029;-78
2023/03/09 06:20:18;;;;;;;;;1.50;0.75;;;;;21.98;36.21;99244.78;5071120;27;45438;-84
2023/03/09 06:22:44;;;;;;;;;1.00;0.00;;;;;21.93;36.60;99234.56;5076484;28;45308;-87
2023/03/09 06:25:23;;;;;;;;;3.00;1.00;;;;;21.74;36.57;99219.56;5057632;28;45610;-78
2023/03/09 06:27:48;;;;;;;;;0.25;0.25;;;;;21.92;36.00;99256.00;5060300;28;47944;-73
2023/03/09 06:30:14;;;;;;;;;0.00;0.00;;;;;21.99;36.23;99259.75;5067091;27;66824;-74
2023/03/09 06:32:39;;;;;;;;;1.50;0.25;;;;;22.07;36.30;99269.66;5076144;28;45493;-74
2023/03/09 06:35:05;;;;;;;;;1.50;0.00;;;;;22.03;36.76;99266.47;5069246;27;45238;-74
2023/03/09 06:37:30;;;;;;;;;2.75;0.00;;;;;22.10;36.46;99270.19;5064382;28;45921;-74
2023/03/09 06:39:56;;;;;;;;;2.00;0.50;;;;;22.11;36.48;99277.19;5075423;28;71918;-74
2023/03/09 06:42:21;;;;;;;;;2.25;0.00;;;;;22.13;36.77;99272.56;5078826;28;45215;-73
2023/03/09 06:44:46;;;;;;;;;0.00;0.00;;;;;22.13;36.64;99282.38;5073073;27;56723;-73
2023/03/09 06:47:12;;;;;;;;;2.00;1.00;;;;;22.14;36.16;99279.56;5068182;28;45288;-73
2023/03/09 06:49:37;;;;;;;;;1.75;1.75;;;;;22.19;36.60;99289.78;5059700;28;68958;-74
2023/03/09 06:52:03;;;;;;;;;3.75;1.25;;;;;22.22;36.24;99291.28;5077075;28;66003;-74
2023/03/09 06:54:28;;;;;;;;;2.00;0.00;;;;;22.18;36.78;99275.59;5072766;27;45541;-76
2023/03/09 06:56:54;;;;;;;;;2.50;1.00;;;;;22.21;36.51;99287.78;5055388;28;62555;-76
2023/03/09 06:59:19;;;;;;;;;1.25;1.00;;;;;22.24;36.27;99282.16;5056474;28;46042;-75
2023/03/09 07:01:45;;;;;;;;;3.25;0.00;;;;;22.25;36.33;99281.16;5060748;28;45473;-75
2023/03/09 07:04:10;;;;;;;;;2.75;1.00;;;;;22.25;36.51;99286.47;5073843;27;45480;-75
2023/03/09 07:06:36;;;;;;;;;1.00;1.00;;;;;22.21;36.00;99287.78;5063912;27;45925;-75
2023/03/09 07:09:01;;;;;;;;;2.00;0.50;;;;;22.28;36.15;99302.22;5065164;27;54341;-75
2023/03/09 07:11:26;;;;;;;;;2.00;1.00;;;;;22.30;36.14;99310.88;5087800;27;70806;-75
2023/03/09 07:13:55;;;;;;;;;1.00;0.00;;;;;22.32;36.59;99316.06;5060525;28;58516;-75
2023/03/09 07:16:22;;;;;;;;;0.50;0.00;;;;;22.33;36.16;99317.75;5071724;28;45551;-75
2023/03/09 07:18:47;;;;;;;;;3.75;1.00;;;;;22.31;36.34;99312.56;5049450;28;45426;-75
2023/03/09 07:21:13;;;;;;;;;1.75;1.00;;;;;22.35;36.57;99323.78;5076501;28;45563;-76
2023/03/09 07:23:38;;;;;;;;;1.50;0.00;;;;;22.36;36.28;99320.97;5069483;28;67343;-75
2023/03/09 07:26:04;;;;;;;;;1.75;0.25;;;;;22.36;36.30;99317.44;5057726;28;75283;-75
2023/03/09 07:28:30;;;;;;;;;2.75;1.00;;;;;22.39;36.48;99322.47;5056318;28;45768;-75
2023/03/09 07:30:55;;;;;;;;;0.00;0.00;;;;;22.41;36.49;99328.47;5070596;27;45531;-74
2023/03/09 07:33:20;;;;;;;;;2.00;0.75;;;;;22.44;36.54;99330.84;5053220;28;45567;-75
2023/03/09 07:35:46;;;;;;;;;0.00;0.00;;;;;22.43;36.16;99321.16;5071974;28;46529;-75
2023/03/09 07:38:11;;;;;;;;;0.00;0.00;;;;;22.46;36.40;99336.84;5079224;28;57714;-75
2023/03/09 07:40:36;;;;;;;;;2.75;1.00;;;;;22.47;36.46;99333.22;5081467;27;45471;-75
2023/03/09 07:43:02;;;;;;;;;0.50;0.00;;;;;22.50;36.31;99340.88;5060803;28;45662;-75
2023/03/09 07:45:31;;;;;;;;;1.00;0.00;;;;;22.53;36.83;99345.91;5050838;27;48099;-76
2023/03/09 07:47:56;;;;;;;;;3.00;0.25;;;;;22.53;36.37;99345.91;5076450;27;45225;-75
2023/03/09 07:50:21;;;;;;;;;1.25;0.25;;;;;22.52;36.41;99351.41;5079863;27;45239;-75
2023/03/09 07:52:47;;;;;;;;;0.75;0.25;;;;;22.57;36.28;99357.13;5074812;28;45312;-75
2023/03/09 07:55:13;;;;;;;;;2.75;1.00;;;;;22.55;36.51;99354.59;5075094;28;45371;-75
2023/03/09 07:57:39;;;;;;;;;1.00;1.00;;;;;22.55;36.04;99353.78;5071593;27;45456;-75
2023/03/09 08:00:11;;;;;;;;;1.00;0.00;;;;;22.62;36.23;99370.00;5074461;27;45402;-75
2023/03/09 08:02:36;;;;;;;;;1.00;0.00;;;;;22.62;36.74;99365.50;5073567;28;45330;-75
2023/03/09 08:05:02;;;;;;;;;1.00;1.00;;;;;22.64;36.28;99363.50;5073699;27;71221;-75
2023/03/09 08:07:27;;;;;;;;;2.75;1.00;;;;;22.64;36.28;99363.50;5067942;28;45372;-74
2023/03/09 08:09:52;;;;;;;;;0.00;0.00;;;;;22.62;36.39;99356.66;5075902;28;58892;-75
2023/03/09 08:12:18;;;;;;;;;0.25;0.00;;;;;22.67;35.89;99357.06;5055084;28;73984;-75
2023/03/09 08:14:43;;;;;;;;;1.50;0.25;;;;;22.67;36.38;99363.22;5072606;27;56592;-75
2023/03/09 08:17:08;;;;;;;;;3.50;1.25;;;;;22.65;36.48;99349.19;5082710;27;45441;-75
2023/03/09 08:19:34;;;;;;;;;0.00;0.00;;;;;22.71;35.92;99369.06;5077162;27;45256;-74
2023/03/09 08:22:00;;;;;;;;;1.00;1.00;;;;;22.68;36.16;99367.56;5071510;28;45397;-74
2023/03/09 08:24:25;;;;;;;;;2.00;0.00;;;;;22.71;36.38;99369.06;5075594;27;74024;-75
2023/03/09 08:26:50;;;;;;;;;0.50;0.00;;;;;22.68;35.89;99374.72;5074497;27;64496;-75
2023/03/09 08:29:15;;;;;;;;;0.00;0.00;;;;;22.69;35.79;99371.91;5075901;28;64159;-75
2023/03/09 08:31:41;;;;;;;;;4.00;0.00;;;;;22.73;36.08;99383.94;5067306;27;51043;-75
2023/03/09 08:34:06;;;;;;;;;3.75;0.00;;;;;22.72;36.16;99387.59;5049810;28;47150;-75
2023/03/09 08:36:32;;;;;;;;;3.25;1.00;;;;;22.72;36.17;99378.78;5074804;27;45543;-75
2023/03/09 08:38:58;;;;;;;;;0.00;0.00;;;;;22.73;36.23;99381.28;5079851;27;45238;-75
2023/03/09 08:41:23;;;;;;;;;0.00;0.00;;;;;22.74;36.26;99387.44;5077138;28;45916;-75
2023/03/09 08:43:49;;;;;;;;;0.75;0.00;;;;;22.69;36.11;99385.22;5066813;27;63649;-75
2023/03/09 08:46:15;;;;;;;;;0.00;0.00;;;;;22.70;36.02;99380.72;5069038;27;45273;-75
2023/03/09 08:48:40;;;;;;;;;1.00;1.00;;;;;22.73;36.21;99383.94;5074354;27;60168;-75
2023/03/09 08:51:10;;;;;;;;;0.75;0.25;;;;;22.67;36.43;99376.53;5073694;27;45561;-75
2023/03/09 08:53:40;;;;;;;;;4.25;1.00;;;;;22.68;36.31;99380.91;5059915;28;48274;-75
2023/03/09 08:56:08;;;;;;;;;1.00;0.00;;;;;22.70;36.62;99386.91;5055617;28;45874;-75
2023/03/09 08:58:34;;;;;;;;;0.75;0.00;;;;;22.73;36.07;99383.94;5049792;28;45454;-75
2023/03/09 09:01:05;;;;;;;;;2.25;0.25;;;;;22.76;36.48;99390.78;5048959;28;45563;-75
2023/03/09 09:03:31;;;;;;;;;2.50;1.00;;;;;22.74;36.42;99390.13;5067299;28;45274;-75
2023/03/09 09:06:03;;;;;;;;;1.25;0.00;;;;;22.77;36.20;99388.97;5077282;27;45294;-75
2023/03/09 09:08:28;;;;;;;;;3.00;1.00;;;;;22.78;36.06;99385.31;5080203;27;45540;-75
2023/03/09 09:10:56;;;;;;;;;2.00;0.00;;;;;22.76;36.28;99380.13;5065790;27;45324;-75
2023/03/09 09:13:22;;;;;;;;;0.00;0.00;;;;;22.77;36.06;99384.47;5052349;28;45430;-75
2023/03/09 09:15:54;;;;;;;;;1.25;1.25;;;;;22.82;36.44;99382.16;5055990;28;45542;-75
2023/03/09 09:18:20;;;;;;;;;3.75;1.00;;;;;22.83;36.46;99388.38;5059910;28;45430;-75
2023/03/09 09:20:46;;;;;;;;;1.25;0.75;;;;;22.82;35.88;99384.84;5060301;27;45193;-75
2023/03/09 09:23:11;;;;;;;;;3.00;1.00;;;;;22.84;36.08;99390.03;5059236;27;64499;-75
2023/03/09 09:25:36;;;;;;;;;3.00;0.00;;;;;22.84;36.09;99382.00;5058885;28;60747;-76
2023/03/09 09:28:02;;;;;;;;;1.50;0.00;;;;;22.86;36.07;99380.88;5061788;28;68484;-76
2023/03/09 09:30:27;;;;;;;;;0.00;0.00;;;;;22.86;35.87;99382.69;5067093;27;45287;-76
2023/03/09 09:32:52;;;;;;;;;2.25;1.00;;;;;22.87;35.89;99382.53;5046154;28;47199;-76
2023/03/09 09:35:18;;;;;;;;;1.50;0.00;;;;;22.87;36.00;99369.22;5066069;28;54242;-76
2023/03/09 09:37:43;;;;;;;;;1.75;0.25;;;;;22.88;35.80;99378.06;5063370;27;45630;-76
2023/03/09 09:40:13;;;;;;;;;1.00;0.50;;;;;22.84;36.36;99355.34;5062948;27;45323;-76
2023/03/09 09:42:43;;;;;;;;;3.25;0.25;;;;;22.86;36.14;99362.22;5062882;27;45353;-76
2023/03/09 09:45:23;;;;;;;;;1.00;1.00;;;;;22.88;36.25;99367.41;5066891;27;45438;-76
2023/03/09 09:47:49;;;;;;;;;1.00;1.00;;;;;22.85;36.09;99360.53;5062019;28;45248;-76
2023/03/09 09:50:15;;;;;;;;;1.00;1.00;;;;;22.88;36.38;99362.06;5061435;27;45291;-76
2023/03/09 09:52:45;;;;;;;;;5.50;2.25;;;;;22.88;35.93;99365.56;5066475;28;45697;-75
2023/03/09 09:55:33;;;;;;;;;3.00;1.00;;;;;22.88;35.76;99362.06;5059284;27;45847;-76
2023/03/09 09:58:03;;;;;;;;;6.75;0.75;;;;;22.88;36.22;99362.06;5066854;27;45491;-76
2023/03/09 10:00:56;;;;;;;;;0.00;0.00;;;;;22.87;36.00;99357.72;5064647;27;45336;-76
2023/03/09 10:03:26;;;;;;;;;0.50;0.50;;;;;22.88;36.27;99364.72;5070919;28;46770;-75
2023/03/09 10:06:06;;;;;;;;;0.75;0.25;;;;;22.87;36.37;99360.38;5072908;27;45799;-75
2023/03/09 10:08:49;;;;;;;;;2.00;0.50;;;;;22.87;36.16;99358.53;5063505;28;45554;-76
2023/03/09 10:11:41;;;;;;;;;3.00;2.00;;;;;22.85;36.12;99352.53;5055773;28;45477;-76
2023/03/09 10:14:18;;;;;;;;;3.25;1.75;;;;;22.88;35.98;99365.56;5075373;27;46984;-76
2023/03/09 10:17:06;;;;;;;;;3.75;3.00;;;;;22.88;36.24;99360.22;5061720;27;45367;-76
2023/03/09 10:19:40;;;;;;;;;1.25;1.25;;;;;22.90;35.87;99354.75;5065112;28;45281;-76
2023/03/09 10:22:16;;;;;;;;;5.50;0.25;;;;;22.91;36.01;99367.94;5059467;28;45279;-75
2023/03/09 10:24:50;;;;;;;;;3.00;1.00;;;;;22.92;35.72;99358.91;5043341;28;45526;-75
2023/03/09 10:27:41;;;;;;;;;1.00;1.00;;;;;22.93;35.92;99365.94;5067929;28;45396;-75
2023/03/09 10:30:10;;;;;;;;;3.00;1.50;;;;;22.96;35.80;99367.44;5065986;28;45401;-75
2023/03/09 10:32:45;;;;;;;;;0.75;0.25;;;;;22.96;35.94;99351.44;5061025;28;45156;-75
2023/03/09 10:35:29;;;;;;;;;3.00;1.00;;;;;22.99;35.87;99358.31;5057022;28;46997;-75
2023/03/09 10:37:54;;;;;;;;;3.25;0.75;;;;;22.98;36.18;99344.13;5061086;28;45249;-75
2023/03/09 10:40:29;;;;;;;;;3.75;1.00;;;;;22.97;35.95;99341.63;5069267;28;45715;-75
2023/03/09 10:42:57;;;;;;;;;1.25;1.00;;;;;23.00;35.78;99346.63;5063951;27;45371;-76
2023/03/09 10:45:32;;;;;;;;;2.50;0.25;;;;;22.99;35.76;99343.13;5060649;28;45261;-76
2023/03/09 10:48:09;;;;;;;;;1.00;1.00;;;;;23.00;36.25;99336.81;5063444;28;45682;-76
2023/03/09 10:50:35;;;;;;;;;2.25;1.75;;;;;23.02;35.83;99345.50;5045268;28;45468;-76
2023/03/09 10:53:41;;;;;;;;;2.00;1.00;;;;;23.03;36.01;99344.47;5056573;28;46027;-76
2023/03/09 10:56:15;;;;;;;;;1.50;0.75;;;;;23.03;35.63;99341.00;5062182;28;45432;-76
2023/03/09 10:58:40;;;;;;;;;0.75;0.75;;;;;23.02;35.68;99350.84;5049896;28;45699;-76
2023/03/09 11:01:21;;;;;;;;;4.25;0.50;;;;;23.01;36.16;99343.81;5064096;28;68846;-76
2023/03/09 11:03:46;;;;;;;;;2.25;0.25;;;;;23.00;35.60;99331.47;5071595;28;45325;-76
2023/03/09 11:06:24;;;;;;;;;1.00;0.00;;;;;23.03;35.85;99341.00;5069769;28;75281;-76
2023/03/09 11:08:57;;;;;;;;;4.00;1.00;;;;;;;;5062569;27;45509;-76
2023/03/09 11:11:25;;;;;;;;;1.75;1.00;;;;;23.01;36.10;99330.47;5071635;28;45505;-76
2023/03/09 11:13:51;;;;;;;;;2.00;2.00;;;;;23.01;36.17;99326.97;5064181;27;45612;-76
2023/03/09 11:16:26;;;;;;;;;3.25;0.50;;;;;22.99;35.66;99329.78;5062766;27;47080;-76
2023/03/09 11:19:13;;;;;;;;;0.75;0.75;;;;;23.02;35.57;99329.47;5059236;28;45385;-76
2023/03/09 11:22:02;;;;;;;;;2.00;0.25;;;;;22.99;35.72;99319.13;5057330;27;45392;-76
2023/03/09 11:24:44;;;;;;;;;2.00;1.75;;;;;23.01;36.18;99335.81;5063818;27;45410;-76
2023/03/09 11:27:30;;;;;;;;;3.50;1.00;;;;;22.99;35.76;99334.31;5076050;27;45914;-75
2023/03/09 11:30:25;;;;;;;;;2.75;2.25;;;;;22.94;36.03;99337.41;5054800;28;45361;-75
2023/03/09 11:32:52;;;;;;;;;2.00;1.00;;;;;23.02;35.74;99347.31;5040590;28;45345;-75
2023/03/09 11:35:18;;;;;;;;;5.00;1.00;;;;;23.00;35.46;99342.16;5061843;28;45379;-75
2023/03/09 11:37:52;;;;;;;;;2.75;0.25;;;;;23.01;35.87;99335.81;5063639;28;45482;-76